Latest Weather Observations for Port Fairy

IDV60801

Issued at 11:02 am EST Friday 31 July 2015 (issued every 30 minutes, with the page automatically refreshed every 10 minutes)

About weather observations | Map of weather stations | Latest weather observations for VIC | Other Formats
Station Details ID: 090175 Name: PORT FAIRY AWS Lat: -38.39 Lon: 142.23 Height: 10.0 m
Data from the previous 72 hours. | See also: Recent months at Port Fairy
Date/Time
EST
Temp
°C
App
Temp
°C
Dew
Point
Rel
Hum
%
Delta-T
°C
Wind Press
QNH
hPa
Press
MSL
hPa
Rain
since 9 am
mm
Dir
 
Spd
km/h
Gust
km/h
Spd
kts
Gust
kts
31/11:00am 9.7 5.2 4.3 69 2.4 NNW 17 26 9 14 1019.7 1019.7 0.0
31/10:30am 9.4 5.3 4.2 70 2.3 NNW 15 22 8 12 1020.1 1020.1 0.0
31/10:00am 8.9 5.6 4.3 73 2.0 NNW 11 20 6 11 1020.1 1020.1 0.0
31/09:30am 8.0 5.1 4.4 78 1.6 NNW 9 15 5 8 1020.3 1020.3 0.0
31/09:00am 7.5 4.9 4.3 80 1.4 NNW 7 13 4 7 1020.2 1020.2 3.8
31/08:30am 6.5 3.1 4.0 84 1.1 NNW 11 17 6 9 1020.1 1020.1 3.8
31/08:00am 6.2 2.8 3.9 85 1.0 NNW 11 15 6 8 1020.0 1020.0 3.8
31/07:30am 6.1 3.1 3.9 86 0.9 NNW 9 15 5 8 1019.7 1019.7 3.8
31/07:00am 6.1 3.1 3.9 86 0.9 NNW 9 15 5 8 1019.6 1019.6 3.8
31/06:30am 6.3 3.3 4.1 86 0.9 NW 9 17 5 9 1019.4 1019.4 3.8
31/06:00am 6.0 2.9 3.8 86 0.9 NNW 9 15 5 8 1019.3 1019.3 3.8
31/05:30am 5.8 2.0 3.8 87 0.8 NNW 13 19 7 10 1019.3 1019.3 3.8
31/05:00am 5.4 1.9 3.4 87 0.8 NNW 11 15 6 8 1019.3 1019.3 3.8
31/04:30am 5.6 2.1 3.4 86 0.9 NW 11 17 6 9 1019.4 1019.4 3.8
31/04:00am 6.1 2.6 3.6 84 1.0 NNW 11 17 6 9 1019.2 1019.2 3.8
31/03:30am 5.7 2.5 2.9 82 1.2 NNW 9 11 5 6 1019.3 1019.3 3.8
31/03:00am 5.8 2.4 2.1 77 1.5 NNW 9 13 5 7 1019.3 1019.3 3.8
31/02:30am 8.8 4.2 3.6 70 2.2 WSW 17 24 9 13 1019.2 1019.2 3.8
31/02:00am 8.8 4.4 4.6 75 1.9 WSW 17 26 9 14 1019.4 1019.4 3.8
31/01:30am 8.1 2.7 4.7 79 1.5 WSW 22 32 12 17 1019.5 1019.5 3.8
31/01:00am 10.0 5.2 4.4 68 2.5 SW 19 28 10 15 1019.3 1019.3 3.8
31/12:30am 9.8 4.1 2.6 61 3.1 WSW 22 28 12 15 1019.2 1019.2 3.8
31/12:00am 10.2 4.7 4.1 66 2.7 SW 22 30 12 16 1019.1 1019.1 3.8
 
Date/Time
EST
Temp
°C
App
Temp
°C
Dew
Point
Rel
Hum
%
Delta-T
°C
Wind Press
QNH
hPa
Press
MSL
hPa
Rain
since 9 am
mm
Dir
 
Spd
km/h
Gust
km/h
Spd
kts
Gust
kts
30/11:30pm 9.9 4.6 5.1 72 2.2 SSW 22 30 12 16 1018.9 1018.9 3.8
30/11:00pm 10.0 3.7 3.5 64 2.8 SW 26 33 14 18 1018.6 1018.6 3.8
30/10:30pm 10.5 4.0 4.9 68 2.5 SW 28 39 15 21 1018.4 1018.4 3.8
30/10:00pm 10.4 3.5 4.8 68 2.5 SW 30 39 16 21 1018.2 1018.2 3.8
30/09:30pm 10.2 3.2 6.2 76 1.9 SW 32 41 17 22 1017.7 1017.7 3.8
30/09:00pm 10.3 3.5 4.9 69 2.4 WSW 30 41 16 22 1017.3 1017.3 3.8
30/08:50pm 9.8 2.5 4.6 70 2.3 SW 32 41 17 22 1017.3 1017.3 3.8
30/08:30pm 10.7 1.7 4.8 67 2.7 SW 41 54 22 29 1016.8 1016.8 3.8
30/08:00pm 11.3 3.0 6.2 71 2.4 SW 39 48 21 26 1016.0 1016.0 3.8
30/07:30pm 11.2 3.0 6.5 73 2.2 SW 39 50 21 27 1015.4 1015.4 3.8
30/07:00pm 10.3 2.9 8.4 88 0.9 WSW 37 48 20 26 1014.7 1014.7 3.8
30/06:30pm 9.4 3.3 8.2 92 0.6 W 30 43 16 23 1014.1 1014.1 3.8
30/06:00pm 9.7 1.6 8.5 92 0.6 WSW 41 61 22 33 1013.6 1013.6 3.4
30/05:30pm 10.6 4.1 9.0 90 0.8 W 33 56 18 30 1012.4 1012.4 2.2
30/05:28pm 10.6 4.7 8.9 89 0.8 W 30 56 16 30 1012.4 1012.4 2.0
30/05:20pm 10.4 5.1 8.3 87 1.0 WNW 26 48 14 26 1012.2 1012.2 1.6
30/05:00pm 10.8 5.8 7.9 82 1.4 NNW 24 37 13 20 1010.2 1010.2 0.2
30/04:30pm 10.9 5.3 7.2 78 1.8 NNW 26 37 14 20 1009.9 1009.9 0.2
30/04:05pm 11.0 5.0 6.9 76 1.9 NNW 28 46 15 25 1010.2 1010.2 0.2
30/04:00pm 11.0 4.6 6.9 76 1.9 NNW 30 46 16 25 1010.2 1010.2 0.2
30/03:30pm 10.9 4.0 6.5 74 2.1 NNW 32 50 17 27 1010.3 1010.3 0.2
30/03:06pm 10.8 3.5 5.6 70 2.4 NNW 33 54 18 29 1010.2 1010.2 0.2
30/03:00pm 10.9 3.8 5.7 70 2.4 NNW 32 48 17 26 1010.2 1010.2 0.2
30/02:30pm 10.6 3.9 5.6 71 2.3 NNW 30 61 16 33 1010.4 1010.4 0.2
30/02:01pm 10.9 4.5 5.2 68 2.6 NNW 28 50 15 27 1010.6 1010.6 0.2
30/02:00pm 10.8 4.4 5.1 68 2.6 NNW 28 41 15 22 1010.6 1010.6 0.2
30/01:30pm 11.2 3.7 4.4 63 3.1 NNW 33 56 18 30 1011.0 1011.0 0.2
30/01:10pm 11.5 5.0 4.5 62 3.2 NNW 28 48 15 26 1011.6 1011.6 0.2
30/01:00pm 11.6 5.5 4.8 63 3.1 NNW 26 43 14 23 1011.8 1011.8 0.2
30/12:30pm 11.1 5.7 4.6 64 2.9 NNW 22 37 12 20 1012.4 1012.4 0.2
30/12:00pm 11.3 4.3 4.1 61 3.2 N 30 50 16 27 1012.4 1012.4 0.2
30/11:34am 11.6 5.0 4.3 61 3.3 N 28 48 15 26 1013.1 1013.1 0.2
30/11:30am 11.5 4.5 4.3 61 3.2 N 30 46 16 25 1012.9 1012.9 0.2
30/11:10am 11.0 3.6 4.0 62 3.1 N 32 56 17 30 1013.0 1013.0 0.2
30/11:00am 10.7 4.2 4.6 66 2.7 N 28 43 15 23 1013.1 1013.1 0.2
30/10:30am 9.5 3.3 4.3 70 2.3 N 26 35 14 19 1014.3 1014.3 0.2
30/10:00am 8.6 3.5 4.2 74 1.9 N 20 32 11 17 1015.1 1015.1 0.2
30/09:30am 8.0 3.2 4.4 78 1.6 N 19 28 10 15 1015.8 1015.8 0.2
30/09:00am 8.1 3.6 4.1 76 1.7 NNE 17 24 9 13 1016.0 1016.0 0.0
30/08:30am 8.0 3.0 3.8 75 1.8 N 19 24 10 13 1016.8 1016.8 0.0
30/08:00am 8.4 2.8 3.3 70 2.2 N 22 32 12 17 1016.5 1016.5 0.0
30/07:30am 8.1 3.0 3.2 71 2.1 N 19 30 10 16 1016.7 1016.7 0.0
30/07:00am 7.9 2.7 3.4 73 1.9 N 20 28 11 15 1016.4 1016.4 0.0
30/06:30am 7.7 3.4 3.4 74 1.8 N 15 26 8 14 1016.7 1016.7 0.0
30/06:00am 7.6 3.3 3.5 75 1.7 N 15 22 8 12 1017.4 1017.4 0.0
30/05:30am 7.3 3.0 3.4 76 1.7 N 15 28 8 15 1018.0 1018.0 0.0
30/05:00am 7.1 2.4 3.2 76 1.6 N 17 22 9 12 1018.4 1018.4 0.0
30/04:30am 7.2 2.5 3.4 77 1.6 N 17 28 9 15 1018.7 1018.7 0.0
30/04:00am 6.7 2.0 3.1 78 1.5 N 17 26 9 14 1019.1 1019.1 0.0
30/03:30am 6.6 1.9 3.0 78 1.5 N 17 24 9 13 1019.8 1019.8 0.0
30/03:00am 6.5 2.2 3.1 79 1.4 N 15 22 8 12 1020.2 1020.2 0.0
30/02:30am 6.3 1.9 2.9 79 1.4 N 15 20 8 11 1020.6 1020.6 0.0
30/02:00am 6.9 2.6 3.2 77 1.5 N 15 20 8 11 1021.2 1021.2 0.0
30/01:30am 7.0 2.3 3.3 77 1.6 N 17 26 9 14 1021.4 1021.4 0.0
30/01:00am 7.0 2.7 3.3 77 1.6 N 15 22 8 12 1022.0 1022.0 0.0
30/12:30am 7.3 2.3 3.5 77 1.6 N 19 30 10 16 1022.6 1022.6 0.0
30/12:00am 7.6 3.0 3.6 76 1.7 N 17 22 9 12 1023.2 1023.2 0.0
 
Date/Time
EST
Temp
°C
App
Temp
°C
Dew
Point
Rel
Hum
%
Delta-T
°C
Wind Press
QNH
hPa
Press
MSL
hPa
Rain
since 9 am
mm
Dir
 
Spd
km/h
Gust
km/h
Spd
kts
Gust
kts
29/11:30pm 7.8 3.6 3.8 76 1.7 N 15 22 8 12 1023.2 1023.2 0.0
29/11:00pm 7.6 3.1 4.0 78 1.5 N 17 24 9 13 1023.8 1023.9 0.0
29/10:30pm 7.5 3.7 3.9 78 1.5 N 13 20 7 11 1024.1 1024.2 0.0
29/10:00pm 7.6 3.5 4.2 79 1.5 N 15 22 8 12 1024.5 1024.6 0.0
29/09:30pm 7.4 4.0 4.0 79 1.5 N 11 17 6 9 1024.5 1024.6 0.0
29/09:00pm 7.8 4.4 4.2 78 1.6 N 11 17 6 9 1024.7 1024.8 0.0
29/08:30pm 8.3 4.6 4.5 77 1.7 N 13 17 7 9 1024.8 1024.9 0.0
29/08:00pm 8.5 5.2 4.5 76 1.7 N 11 19 6 10 1025.0 1025.1 0.0
29/07:30pm 8.8 5.5 4.8 76 1.8 N 11 17 6 9 1025.2 1025.3 0.0
29/07:00pm 9.0 6.1 4.8 75 1.9 N 9 13 5 7 1025.3 1025.4 0.0
29/06:30pm 9.2 6.4 5.0 75 1.9 N 9 15 5 8 1025.4 1025.5 0.0
29/06:00pm 9.8 7.1 5.4 74 2.0 N 9 15 5 8 1025.4 1025.5 0.0
29/05:30pm 10.0 7.3 5.4 73 2.1 N 9 13 5 7 1025.3 1025.4 0.0
29/05:00pm 10.7 8.0 5.7 71 2.3 N 9 15 5 8 1025.5 1025.6 0.0
29/04:30pm 11.6 8.1 5.5 66 2.8 N 13 22 7 12 1025.7 1025.8 0.0
29/04:00pm 11.5 8.1 5.8 68 2.6 N 13 24 7 13 1026.1 1026.2 0.0
29/03:30pm 11.6 8.2 5.9 68 2.7 NNW 13 22 7 12 1026.2 1026.3 0.0
29/03:00pm 11.6 8.2 5.9 68 2.6 N 13 20 7 11 1026.4 1026.5 0.0
29/02:30pm 11.7 7.9 5.8 67 2.7 N 15 22 8 12 1026.7 1026.8 0.0
29/02:00pm 11.8 7.7 6.1 68 2.7 N 17 24 9 13 1027.1 1027.2 0.0
29/01:30pm 11.7 8.1 6.6 71 2.4 N 15 26 8 14 1028.1 1028.2 0.0
29/01:00pm 11.7 9.0 7.2 74 2.1 N 11 19 6 10 1028.7 1028.8 0.0
29/12:30pm 11.3 8.6 7.2 76 2.0 NNW 11 20 6 11 1029.3 1029.4 0.0
29/12:00pm 11.2 7.3 7.1 76 1.9 NNW 17 30 9 16 1030.1 1030.2 0.0
29/11:30am 11.5 8.2 8.2 80 1.6 NNW 15 28 8 15 1030.4 1030.5 0.0
29/11:00am 10.8 7.8 9.1 89 0.8 N 15 24 8 13 1030.6 1030.7 0.0
29/10:30am 9.9 7.3 9.3 96 0.3 N 13 19 7 10 1030.9 1031.0 0.0
29/10:00am 8.7 6.6 8.4 98 0.1 N 9 15 5 8 1031.0 1031.1 0.0
29/09:30am 7.9 5.3 7.8 99 0.0 N 11 17 6 9 1031.0 1031.1 0.0
29/09:00am 7.0 4.2 6.9 99 0.0 N 11 15 6 8 1031.4 1031.5 0.8
29/08:30am 6.1 3.5 6.0 99 0.0 NNW 9 11 5 6 1031.5 1031.6 0.8
29/08:00am 5.9 2.5 5.8 99 0.0 N 13 17 7 9 1031.4 1031.5 0.8
29/07:30am 5.4 2.2 5.3 99 0.0 NNW 11 17 6 9 1031.7 1031.8 0.8
29/07:00am 5.2 2.0 5.1 99 0.0 N 11 15 6 8 1031.4 1031.5 0.8
29/06:30am 5.0 1.8 4.9 99 0.0 NNW 11 15 6 8 1031.5 1031.6 0.8
29/06:00am 4.7 1.4 4.4 98 0.1 NNE 11 15 6 8 1031.0 1031.1 0.8
29/05:30am 4.7 1.8 4.4 98 0.1 NNE 9 13 5 7 1031.1 1031.2 0.8
29/05:00am 5.0 1.7 4.7 98 0.1 NNE 11 15 6 8 1031.1 1031.2 0.8
29/04:30am 5.1 1.8 4.8 98 0.1 NNE 11 13 6 7 1031.4 1031.5 0.8
29/04:00am 5.2 2.3 4.9 98 0.1 N 9 13 5 7 1031.7 1031.8 0.8
29/03:30am 5.3 2.1 5.0 98 0.1 N 11 13 6 7 1031.6 1031.7 0.8
29/03:00am 5.5 3.1 5.2 98 0.1 N 7 13 4 7 1031.8 1031.9 0.8
29/02:30am 5.9 2.8 5.6 98 0.1 N 11 17 6 9 1031.8 1031.9 0.8
29/02:00am 6.3 3.7 6.0 98 0.1 N 9 15 5 8 1031.8 1031.9 0.6
29/01:30am 6.7 4.2 6.4 98 0.1 N 9 13 5 7 1032.1 1032.2 0.6
29/01:00am 6.4 3.8 6.0 97 0.2 N 9 11 5 6 1032.5 1032.6 0.6
29/12:30am 6.5 3.9 6.1 97 0.2 NNW 9 13 5 7 1032.8 1032.9 0.6
29/12:00am 6.5 3.9 6.1 97 0.2 NNW 9 15 5 8 1032.9 1033.0 0.6
 
Date/Time
EST
Temp
°C
App
Temp
°C
Dew
Point
Rel
Hum
%
Delta-T
°C
Wind Press
QNH
hPa
Press
MSL
hPa
Rain
since 9 am
mm
Dir
 
Spd
km/h
Gust
km/h
Spd
kts
Gust
kts
28/11:30pm 6.6 4.0 6.2 97 0.2 N 9 13 5 7 1032.7 1032.8 0.6
28/11:00pm 6.7 4.5 6.3 97 0.2 NNW 7 11 4 6 1032.8 1032.9 0.6
28/10:30pm 6.5 3.9 5.9 96 0.3 NNW 9 15 5 8 1033.4 1033.5 0.6
28/10:00pm 6.7 4.1 6.1 96 0.3 N 9 13 5 7 1033.5 1033.6 0.6
28/09:30pm 6.9 4.3 6.2 95 0.3 N 9 13 5 7 1033.5 1033.6 0.6
28/09:00pm 7.3 4.8 6.6 95 0.3 NNW 9 13 5 7 1033.6 1033.7 0.6
28/08:30pm 7.5 5.4 6.6 94 0.4 NNW 7 11 4 6 1033.7 1033.8 0.6
28/08:00pm 8.2 6.2 7.3 94 0.4 N 7 11 4 6 1033.8 1033.9 0.6
28/07:30pm 8.7 6.5 7.8 94 0.4 NNW 9 11 5 6 1033.9 1034.0 0.6
28/07:00pm 9.0 7.2 7.9 93 0.5 NNW 7 9 4 5 1033.6 1033.7 0.6
28/06:30pm 9.5 8.4 8.3 92 0.6 NW 4 6 2 3 1033.5 1033.6 0.6
28/06:00pm 9.6 8.4 8.2 91 0.7 NW 4 6 2 3 1033.5 1033.6 0.6
28/05:30pm 10.3 9.3 8.7 90 0.8 NW 4 6 2 3 1033.3 1033.4 0.6
28/05:00pm 10.8 8.9 8.9 88 0.9 WNW 9 17 5 9 1033.5 1033.6 0.4
28/04:30pm 11.2 8.9 8.9 86 1.1 WNW 11 19 6 10 1033.3 1033.4 0.2
28/04:00pm 11.2 8.9 9.1 87 1.0 WNW 11 17 6 9 1033.3 1033.4 0.2
28/03:30pm 11.2 8.5 9.1 87 1.0 W 13 20 7 11 1033.3 1033.4 0.2
28/03:00pm 11.3 7.5 8.9 85 1.2 W 19 28 10 15 1033.3 1033.4 0.2
28/02:30pm 11.3 9.9 9.6 89 0.9 WNW 7 15 4 8 1033.2 1033.3 0.2
28/02:00pm 11.6 8.9 8.8 83 1.4 WNW 13 19 7 10 1033.4 1033.5 0.0
28/01:30pm 11.9 9.8 9.6 86 1.2 WNW 11 17 6 9 1033.7 1033.8 0.0
28/01:00pm 11.9 9.8 9.8 87 1.1 NW 11 20 6 11 1034.1 1034.1 0.0
28/12:30pm 11.2 8.7 9.6 90 0.8 NW 13 22 7 12 1034.5 1034.5 0.0
28/12:00pm 10.9 8.4 9.8 93 0.5 NW 13 20 7 11 1034.9 1034.9 0.0
28/11:30am 10.6 8.0 9.5 93 0.6 NW 13 20 7 11 1035.4 1035.4 0.0

Other Formats:

Comma delimited format used in spreadsheet applications
http://www.bom.gov.au/fwo/IDV60801/IDV60801.94830.axf

JavaScript Object Notation format (JSON) in row-major order
http://www.bom.gov.au/fwo/IDV60801/IDV60801.94830.json